Terminal Aerodrome Forecast
Issued by NWS Birmingham, AL

Home | Current Version | Previous Version | Text Only | Print | Product List | Glossary On
Versions: 1 2 3 4 5 6 7 8 9 10 11 12 13 14 15 16 17 18 19 20
000
FTUS44 KBMX 282300
TAFBHM
TAF
KBHM 282336Z 0100/0124 11007KT P6SM BKN040
     FM010300 11006KT P6SM BKN025
     FM010600 12006KT P6SM OVC015
     FM010900 12005KT 4SM -DZ BR OVC008=

USA.gov is the U.S. government's official web portal to all federal, state and local government web resources and services.